Time;durP1;ratioP1;P1;durP2;ratioP2;P2;SDS_P1;SDS_P2;PMS_P1;PMS_P2;Temp;Humidity;BMP_temperature;BMP_pressure;BME280_temperature;BME280_humidity;BME280_pressure;Samples;Min_cycle;Max_cycle;Signal;HPM_P1;HPM_P2
2024/01/10 00:01:42;;;;;;;;;;;-4.50;99.90;;;;;;5113405;27;20042;-78
2024/01/10 00:04:08;;;;;;;1.10;1.10;;;-6.00;99.90;;;;;;5116187;27;19927;-77
2024/01/10 00:06:33;;;;;;;0.90;0.90;;;-6.00;99.90;;;;;;5110026;27;20067;-75
2024/01/10 00:08:59;;;;;;;;;;;-6.00;99.90;;;;;;5116371;27;20560;-74
2024/01/10 00:11:25;;;;;;;1.00;1.00;;;-6.10;99.90;;;;;;5108505;28;19958;-70
2024/01/10 00:13:50;;;;;;;;;;;-6.10;99.90;;;;;;5094532;27;20063;-75
2024/01/10 00:16:16;;;;;;;1.40;1.30;;;-6.20;99.90;;;;;;5115763;27;19919;-73
2024/01/10 00:18:42;;;;;;;0.80;0.80;;;-6.10;99.90;;;;;;5088261;28;20135;-76
2024/01/10 00:21:07;;;;;;;;;;;-6.10;99.90;;;;;;5103572;28;20063;-71
2024/01/10 00:23:33;;;;;;;1.20;1.10;;;-6.10;99.90;;;;;;5108500;28;20330;-77
2024/01/10 00:25:59;;;;;;;1.00;1.00;;;-6.20;99.90;;;;;;5110551;27;20134;-76
2024/01/10 00:28:25;;;;;;;;;;;-6.20;99.90;;;;;;5115402;27;20192;-72
2024/01/10 00:30:51;;;;;;;0.90;0.90;;;-6.20;99.90;;;;;;5108821;27;19964;-74
2024/01/10 00:33:16;;;;;;;;;;;-6.20;99.90;;;;;;5117523;27;20179;-76
2024/01/10 00:35:42;;;;;;;3.50;3.30;;;-6.30;99.90;;;;;;5108465;28;20014;-78
2024/01/10 00:38:08;;;;;;;1.00;1.00;;;-6.30;99.90;;;;;;5108365;28;20040;-73
2024/01/10 00:40:34;;;;;;;1.00;1.00;;;-6.20;99.90;;;;;;5120488;27;20397;-74
2024/01/10 00:43:00;;;;;;;;;;;-6.40;99.90;;;;;;5095801;28;20123;-72
2024/01/10 00:45:26;;;;;;;1.00;1.00;;;-6.50;99.90;;;;;;5111320;27;19923;-77
2024/01/10 00:47:51;;;;;;;;;;;-6.40;99.90;;;;;;5114817;27;20442;-74
2024/01/10 00:50:17;;;;;;;1.00;1.00;;;-6.50;99.90;;;;;;5108234;28;19988;-75
2024/01/10 00:52:46;;;;;;;;;;;-6.50;99.90;;;;;;5078286;28;20039;-77
2024/01/10 00:55:11;;;;;;;1.00;1.00;;;-6.50;99.90;;;;;;5088909;28;19963;-72
2024/01/10 00:57:40;;;;;;;;;;;-6.60;99.90;;;;;;5094692;27;20870;-74
2024/01/10 01:00:07;;;;;;;1.00;1.00;;;-6.70;99.90;;;;;;5113792;27;20267;-75
2024/01/10 01:02:33;;;;;;;1.00;1.00;;;-6.70;99.90;;;;;;5109351;27;20040;-74
2024/01/10 01:04:59;;;;;;;;;;;-6.70;99.90;;;;;;5105522;27;20132;-73
2024/01/10 01:07:24;;;;;;;1.13;1.10;;;-6.60;99.90;;;;;;5107847;28;19923;-71
2024/01/10 01:09:50;;;;;;;;;;;-6.60;99.90;;;;;;5111291;28;20035;-75
2024/01/10 01:12:16;;;;;;;1.02;1.02;;;-6.50;99.90;;;;;;5113191;27;19998;-75
2024/01/10 01:14:41;;;;;;;1.15;1.13;;;-6.20;99.90;;;;;;5108504;28;20043;-75
2024/01/10 01:17:07;;;;;;;;;;;-6.50;99.90;;;;;;5097632;28;20028;-73
2024/01/10 01:19:33;;;;;;;1.13;1.13;;;-6.50;99.90;;;;;;5107666;28;20447;-74
2024/01/10 01:21:58;;;;;;;0.98;0.98;;;-6.50;99.90;;;;;;5117979;28;20044;-74
2024/01/10 01:24:24;;;;;;;;;;;-6.60;99.90;;;;;;5108679;28;20048;-73
2024/01/10 01:26:50;;;;;;;1.00;1.00;;;-6.60;99.90;;;;;;5074054;28;20051;-76
2024/01/10 01:29:15;;;;;;;;;;;-6.60;99.90;;;;;;5115581;28;20043;-76
2024/01/10 01:31:41;;;;;;;1.00;1.00;;;-6.60;99.90;;;;;;5091148;28;19964;-72
2024/01/10 01:34:07;;;;;;;1.13;1.10;;;-6.70;99.90;;;;;;5093208;27;20043;-73
2024/01/10 01:36:32;;;;;;;;;;;-6.70;99.90;;;;;;5131193;27;20031;-75
2024/01/10 01:38:58;;;;;;;0.93;0.93;;;-6.70;99.90;;;;;;5116071;27;20534;-73
2024/01/10 01:41:24;;;;;;;;;;;-6.60;99.90;;;;;;5103737;28;20075;-75
2024/01/10 01:43:49;;;;;;;0.90;0.90;;;-6.60;99.90;;;;;;5094830;28;19923;-75
2024/01/10 01:46:15;;;;;;;;;;;-6.70;99.90;;;;;;5124214;27;20067;-73
2024/01/10 01:48:42;;;;;;;0.90;0.90;;;-6.70;99.90;;;;;;5118716;27;19919;-74
2024/01/10 01:51:09;;;;;;;2.20;2.08;;;-6.70;99.90;;;;;;5095726;28;20054;-76
2024/01/10 01:53:38;;;;;;;0.90;0.90;;;-6.40;99.90;;;;;;5124921;27;20046;-72
2024/01/10 01:56:09;;;;;;;1.00;1.00;;;-6.70;99.90;;;;;;5116832;27;20043;-74
2024/01/10 01:58:36;;;;;;;0.82;0.82;;;-6.70;99.90;;;;;;5098489;27;20127;-70
2024/01/10 02:01:05;;;;;;;0.90;0.90;;;-6.70;99.90;;;;;;5093985;27;20051;-71
2024/01/10 02:03:32;;;;;;;1.02;1.02;;;-6.80;99.90;;;;;;5123929;27;20107;-76
2024/01/10 02:05:59;;;;;;;1.00;1.00;;;-6.80;99.90;;;;;;5118142;27;20478;-71
2024/01/10 02:08:24;;;;;;;1.00;1.00;;;-6.80;99.90;;;;;;5094548;28;20113;-74
2024/01/10 02:10:50;;;;;;;;;;;-6.80;99.90;;;;;;5114419;27;20075;-73
2024/01/10 02:13:17;;;;;;;0.80;0.80;;;-6.80;99.90;;;;;;5112612;27;19926;-72
2024/01/10 02:15:43;;;;;;;1.00;1.00;;;-6.80;99.90;;;;;;5094725;27;20119;-75
2024/01/10 02:18:14;;;;;;;;;;;-6.80;99.90;;;;;;5101848;28;20452;-75
2024/01/10 02:20:42;;;;;;;0.95;0.95;;;-6.80;99.90;;;;;;5094386;28;19924;-71
2024/01/10 02:23:08;;;;;;;1.00;1.00;;;-6.90;99.90;;;;;;5103160;28;20089;-73
2024/01/10 02:25:34;;;;;;;;;;;-6.80;99.90;;;;;;5122046;27;20040;-74
2024/01/10 02:28:00;;;;;;;1.00;1.00;;;-6.80;99.90;;;;;;5112571;27;20290;-71
2024/01/10 02:30:25;;;;;;;0.80;0.80;;;-6.80;99.90;;;;;;5115578;27;20047;-73
2024/01/10 02:32:51;;;;;;;;;;;-6.70;99.90;;;;;;5107799;28;20031;-76
2024/01/10 02:35:17;;;;;;;1.00;1.00;;;-6.70;99.90;;;;;;5123247;27;19960;-73
2024/01/10 02:37:43;;;;;;;1.00;1.00;;;-6.70;99.90;;;;;;5116578;27;20050;-73
2024/01/10 02:40:09;;;;;;;0.95;0.95;;;-6.70;99.90;;;;;;5112818;27;20047;-73
2024/01/10 02:42:35;;;;;;;0.98;0.98;;;-6.70;99.90;;;;;;5117602;27;20118;-75
2024/01/10 02:45:01;;;;;;;1.00;1.00;;;-6.70;99.90;;;;;;5076349;28;20159;-75
2024/01/10 02:47:27;;;;;;;;;;;-6.70;99.90;;;;;;5096481;27;20070;-77
2024/01/10 02:49:53;;;;;;;1.30;1.20;;;-6.60;99.90;;;;;;5116866;27;19919;-77
2024/01/10 02:52:19;;;;;;;1.10;1.10;;;-6.70;99.90;;;;;;5112312;27;20048;-73
2024/01/10 02:54:46;;;;;;;;;;;-6.70;99.90;;;;;;5128095;27;20153;-74
2024/01/10 02:57:12;;;;;;;1.20;1.10;;;-6.70;99.90;;;;;;5108101;28;20372;-75
2024/01/10 02:59:38;;;;;;;1.05;1.05;;;-6.70;99.90;;;;;;5113383;27;20105;-76
2024/01/10 03:02:03;;;;;;;;;;;-6.70;99.90;;;;;;5116561;27;20429;-74
2024/01/10 03:04:29;;;;;;;1.00;1.00;;;-6.80;99.90;;;;;;5110765;27;19943;-74
2024/01/10 03:06:55;;;;;;;;;;;-6.80;99.90;;;;;;5102053;28;20173;-73
2024/01/10 03:09:23;;;;;;;1.00;1.00;;;-6.80;99.90;;;;;;5101130;28;19951;-72
2024/01/10 03:11:48;;;;;;;0.90;0.90;;;-6.80;99.90;;;;;;5111383;27;20397;-75
2024/01/10 03:14:14;;;;;;;;;;;-6.80;99.90;;;;;;5110694;28;20039;-76
2024/01/10 03:16:40;;;;;;;0.90;0.90;;;-6.80;99.90;;;;;;5110880;27;19915;-74
2024/01/10 03:19:05;;;;;;;;;;;-6.90;99.90;;;;;;5118635;27;20365;-72
2024/01/10 03:21:31;;;;;;;1.00;1.00;;;-7.00;99.90;;;;;;5110190;28;19920;-74
2024/01/10 03:23:58;;;;;;;0.90;0.90;;;-7.00;99.90;;;;;;5111328;27;20194;-72
2024/01/10 03:26:25;;;;;;;0.95;0.95;;;-7.10;99.90;;;;;;5093101;27;20130;-76
2024/01/10 03:28:51;;;;;;;1.73;1.63;;;-7.10;99.90;;;;;;5120928;27;20180;-72
2024/01/10 03:31:17;;;;;;;0.80;0.80;;;-7.00;99.90;;;;;;5112726;27;20035;-72
2024/01/10 03:33:43;;;;;;;1.00;1.00;;;-6.80;99.90;;;;;;5110052;27;20374;-72
2024/01/10 03:36:11;;;;;;;;;;;-6.60;99.90;;;;;;5112053;27;20762;-74
2024/01/10 03:38:36;;;;;;;1.00;1.00;;;-6.40;99.90;;;;;;5109689;27;19916;-76
2024/01/10 03:41:02;;;;;;;;;;;-6.40;99.90;;;;;;5112536;27;20058;-75
2024/01/10 03:43:28;;;;;;;1.00;1.00;;;-6.40;99.90;;;;;;5115656;27;20269;-74
2024/01/10 03:45:53;;;;;;;1.00;1.00;;;-6.50;99.90;;;;;;5086303;27;20170;-77
2024/01/10 03:48:19;;;;;;;;;;;-6.60;99.90;;;;;;5127425;27;20496;-74
2024/01/10 03:50:45;;;;;;;0.90;0.90;;;-6.70;99.90;;;;;;5092987;28;19983;-74
2024/01/10 03:53:10;;;;;;;0.90;0.90;;;-6.70;99.90;;;;;;5110913;27;20043;-74
2024/01/10 03:55:36;;;;;;;1.00;1.00;;;-6.80;99.90;;;;;;5099452;28;20376;-71
2024/01/10 03:58:02;;;;;;;1.65;1.55;;;-6.80;99.90;;;;;;5105133;28;20152;-76
2024/01/10 04:00:27;;;;;;;;;;;-6.90;99.90;;;;;;5095793;27;20035;-72
2024/01/10 04:02:54;;;;;;;1.00;1.00;;;-6.90;99.90;;;;;;5110252;27;20338;-72
2024/01/10 04:05:20;;;;;;;1.00;1.00;;;-7.00;99.90;;;;;;5113090;28;20060;-72
2024/01/10 04:07:46;;;;;;;0.80;0.80;;;-7.00;99.90;;;;;;5119345;27;20685;-72
2024/01/10 04:10:13;;;;;;;;;;;-7.00;99.90;;;;;;5091859;28;20071;-72
2024/01/10 04:12:43;;;;;;;0.80;0.80;;;-5.10;99.90;;;;;;5094251;27;19923;-73
2024/01/10 04:15:09;;;;;;;0.80;0.80;;;-6.80;99.90;;;;;;5096500;28;20044;-72
2024/01/10 04:17:35;;;;;;;0.98;0.98;;;-7.00;99.90;;;;;;5093066;27;20469;-73
2024/01/10 04:20:02;;;;;;;0.90;0.90;;;-7.00;99.90;;;;;;5087441;27;20410;-73
2024/01/10 04:22:28;;;;;;;0.88;0.88;;;-7.10;99.90;;;;;;5104539;28;20039;-71
2024/01/10 04:24:53;;;;;;;1.00;1.00;;;-7.10;99.90;;;;;;5122484;27;20046;-72
2024/01/10 04:27:19;;;;;;;0.90;0.90;;;-7.20;99.90;;;;;;5122870;27;20047;-72
2024/01/10 04:29:45;;;;;;;0.80;0.80;;;-7.20;99.90;;;;;;5109637;27;20088;-72
2024/01/10 04:32:11;;;;;;;0.80;0.80;;;-7.00;99.90;;;;;;5098810;28;20032;-75
2024/01/10 04:34:36;;;;;;;0.70;0.70;;;-6.90;99.90;;;;;;5091893;28;20057;-73
2024/01/10 04:37:02;;;;;;;0.95;0.95;;;-6.90;99.90;;;;;;5109773;27;20188;-76
2024/01/10 04:39:29;;;;;;;1.13;1.10;;;-7.00;99.90;;;;;;5108435;28;20047;-73
2024/01/10 04:41:55;;;;;;;0.80;0.80;;;-7.00;99.90;;;;;;5092649;27;20122;-73
2024/01/10 04:44:20;;;;;;;1.27;1.20;;;-7.10;99.90;;;;;;5114684;27;20176;-74
2024/01/10 04:46:46;;;;;;;0.90;0.90;;;-7.10;99.90;;;;;;5108768;28;20185;-75
2024/01/10 04:49:12;;;;;;;0.90;0.90;;;-7.20;99.90;;;;;;5110090;27;20035;-76
2024/01/10 04:51:37;;;;;;;;;;;-7.20;99.90;;;;;;5115457;27;20400;-75
2024/01/10 04:54:03;;;;;;;1.00;1.00;;;-5.70;99.90;;;;;;5109265;28;19920;-73
2024/01/10 04:56:29;;;;;;;;;;;-7.00;99.90;;;;;;5100117;28;20062;-72
2024/01/10 04:58:54;;;;;;;0.90;0.90;;;-7.00;99.90;;;;;;5116663;27;19926;-73
2024/01/10 05:01:20;;;;;;;;;;;-7.10;99.90;;;;;;5120481;27;20142;-75
2024/01/10 05:03:46;;;;;;;1.02;1.02;;;-7.20;99.90;;;;;;5115048;27;19924;-76
2024/01/10 05:06:12;;;;;;;1.00;1.00;;;-7.20;99.90;;;;;;5091235;28;20046;-72
2024/01/10 05:08:37;;;;;;;1.00;1.00;;;-7.30;99.90;;;;;;5115267;27;20164;-74
2024/01/10 05:11:03;;;;;;;1.00;1.00;;;-7.30;99.90;;;;;;5076577;28;20755;-73
2024/01/10 05:13:29;;;;;;;0.93;0.93;;;-7.30;99.90;;;;;;5109855;27;20107;-75
2024/01/10 05:15:55;;;;;;;1.58;1.48;;;-7.30;99.90;;;;;;5091375;28;20039;-73
2024/01/10 05:18:21;;;;;;;0.90;0.90;;;-7.30;99.90;;;;;;5107849;28;20043;-76
2024/01/10 05:20:47;;;;;;;0.90;0.90;;;-7.30;99.90;;;;;;5110588;28;20163;-74
2024/01/10 05:23:13;;;;;;;0.98;0.98;;;-7.30;99.90;;;;;;5116454;28;20496;-74
2024/01/10 05:25:39;;;;;;;0.93;0.93;;;-7.30;99.90;;;;;;5108753;28;20376;-73
2024/01/10 05:28:05;;;;;;;;;;;-7.20;99.90;;;;;;5108029;28;20035;-72
2024/01/10 05:30:31;;;;;;;0.90;0.90;;;-7.10;99.90;;;;;;5108067;28;19923;-74
2024/01/10 05:32:58;;;;;;;0.90;0.90;;;-7.00;99.90;;;;;;5111066;28;20545;-72
2024/01/10 05:35:25;;;;;;;0.90;0.90;;;-7.10;99.90;;;;;;5113477;28;20214;-74
2024/01/10 05:37:52;;;;;;;1.30;1.20;;;-7.10;99.90;;;;;;5108943;28;20755;-72
2024/01/10 05:40:18;;;;;;;1.17;1.10;;;-7.10;99.90;;;;;;5106743;28;20502;-71
2024/01/10 05:42:44;;;;;;;0.90;0.90;;;-7.10;99.90;;;;;;5091119;28;20527;-75
2024/01/10 05:45:10;;;;;;;0.90;0.90;;;-7.20;99.90;;;;;;5093727;28;20039;-76
2024/01/10 05:47:36;;;;;;;1.02;1.02;;;-7.30;99.90;;;;;;5112298;28;20036;-74
2024/01/10 05:50:06;;;;;;;1.00;1.00;;;-7.30;99.90;;;;;;5109022;28;20412;-74
2024/01/10 05:52:33;;;;;;;1.00;1.00;;;-7.30;99.90;;;;;;5114936;28;20130;-72
2024/01/10 05:55:01;;;;;;;1.20;1.10;;;-7.40;99.90;;;;;;5108725;28;20080;-72
2024/01/10 05:57:27;;;;;;;0.90;0.90;;;-7.50;99.90;;;;;;5103658;28;20051;-72
2024/01/10 05:59:56;;;;;;;0.80;0.80;;;-7.50;99.90;;;;;;5113116;28;20148;-73
2024/01/10 06:02:24;;;;;;;0.82;0.82;;;-7.60;99.90;;;;;;5110056;28;20087;-74
2024/01/10 06:04:50;;;;;;;0.93;0.93;;;-7.70;99.90;;;;;;5121592;27;20055;-76
2024/01/10 06:07:15;;;;;;;1.20;1.10;;;-7.70;99.90;;;;;;5095176;28;20126;-72
2024/01/10 06:09:43;;;;;;;0.90;0.90;;;-7.80;99.90;;;;;;5116601;28;20134;-73
2024/01/10 06:12:09;;;;;;;1.00;1.00;;;-7.80;99.90;;;;;;5110031;28;20048;-70
2024/01/10 06:14:35;;;;;;;1.00;1.00;;;-7.10;99.90;;;;;;5109593;28;20047;-73
2024/01/10 06:17:03;;;;;;;0.85;0.85;;;-7.50;99.90;;;;;;5097096;28;20060;-76
2024/01/10 06:19:33;;;;;;;0.98;0.98;;;-7.40;99.90;;;;;;5108382;28;20126;-73
2024/01/10 06:21:59;;;;;;;1.20;1.10;;;-7.30;99.90;;;;;;5117225;27;20047;-74
2024/01/10 06:24:26;;;;;;;0.80;0.80;;;-7.30;99.90;;;;;;5111721;28;20036;-75
2024/01/10 06:26:52;;;;;;;1.20;1.10;;;-7.30;99.90;;;;;;5094599;27;20042;-76
2024/01/10 06:29:18;;;;;;;1.20;1.10;;;-7.30;99.90;;;;;;5100384;28;20157;-71
2024/01/10 06:31:44;;;;;;;0.90;0.90;;;-7.20;99.90;;;;;;5095643;27;20046;-73
2024/01/10 06:34:10;;;;;;;1.30;1.20;;;-7.20;99.90;;;;;;5127840;27;20666;-73
2024/01/10 06:36:36;;;;;;;1.00;1.00;;;-7.10;99.90;;;;;;5110835;28;20431;-76
2024/01/10 06:39:02;;;;;;;0.82;0.82;;;-7.10;99.90;;;;;;5114170;27;20094;-75
2024/01/10 06:41:27;;;;;;;;;;;-7.10;99.90;;;;;;5115144;27;20176;-75
2024/01/10 06:43:53;;;;;;;0.90;0.90;;;-7.10;99.90;;;;;;5114081;27;20257;-73
2024/01/10 06:46:20;;;;;;;0.80;0.80;;;-7.10;99.90;;;;;;5114485;27;20116;-74
2024/01/10 06:48:46;;;;;;;1.20;1.10;;;-7.10;99.90;;;;;;5116165;27;20594;-75
2024/01/10 06:51:16;;;;;;;1.02;1.00;;;-7.00;99.90;;;;;;5113611;27;20054;-75
2024/01/10 06:53:42;;;;;;;1.00;1.00;;;-7.10;99.90;;;;;;5108185;28;20075;-76
2024/01/10 06:56:09;;;;;;;0.98;0.98;;;-7.00;99.90;;;;;;5110711;28;20039;-75
2024/01/10 06:58:35;;;;;;;1.00;1.00;;;-6.90;99.90;;;;;;5111511;28;20472;-75
2024/01/10 07:01:01;;;;;;;;;;;-7.00;99.90;;;;;;5114080;28;20035;-72
2024/01/10 07:03:27;;;;;;;1.08;1.08;;;-6.90;99.90;;;;;;5110951;28;19984;-75
2024/01/10 07:05:52;;;;;;;;;;;-6.90;99.90;;;;;;5111172;28;20043;-77
2024/01/10 07:08:18;;;;;;;1.25;1.25;;;-6.80;99.90;;;;;;5110864;27;19927;-76
2024/01/10 07:10:44;;;;;;;;;;;-6.80;99.90;;;;;;5118537;27;20043;-74
2024/01/10 07:13:10;;;;;;;0.90;0.90;;;-6.80;99.90;;;;;;5112806;27;19920;-73
2024/01/10 07:15:38;;;;;;;1.00;1.00;;;-6.80;99.90;;;;;;5111631;27;20059;-73
2024/01/10 07:18:04;;;;;;;0.90;0.90;;;-6.80;99.90;;;;;;5125652;27;20121;-73
2024/01/10 07:20:37;;;;;;;1.20;1.10;;;-6.80;99.90;;;;;;5112239;27;20108;-75
2024/01/10 07:23:03;;;;;;;1.00;1.00;;;-6.80;99.90;;;;;;5100197;28;20054;-72
2024/01/10 07:25:30;;;;;;;;;;;-6.80;99.90;;;;;;5108812;28;20127;-74
2024/01/10 07:27:55;;;;;;;0.90;0.90;;;-6.80;99.90;;;;;;5110827;27;19945;-77
2024/01/10 07:30:21;;;;;;;1.00;1.00;;;-6.90;99.90;;;;;;5093749;28;20043;-74
2024/01/10 07:32:48;;;;;;;0.90;0.90;;;-6.90;99.90;;;;;;5092980;28;20036;-75
2024/01/10 07:35:14;;;;;;;1.00;1.00;;;-6.90;99.90;;;;;;5093786;28;20051;-74
2024/01/10 07:37:41;;;;;;;1.00;1.00;;;-6.90;99.90;;;;;;5110329;28;20048;-76
2024/01/10 07:40:13;;;;;;;0.95;0.95;;;-7.00;99.90;;;;;;5113063;27;20050;-76
2024/01/10 07:42:42;;;;;;;1.10;1.10;;;-7.00;99.90;;;;;;5113853;27;20055;-76
2024/01/10 07:45:08;;;;;;;0.82;0.82;;;-7.00;99.90;;;;;;5111748;27;20058;-73
2024/01/10 07:47:38;;;;;;;0.90;0.90;;;-7.00;99.90;;;;;;5081715;28;20498;-73
2024/01/10 07:50:07;;;;;;;1.27;1.20;;;-7.10;99.90;;;;;;5121656;27;20368;-76
2024/01/10 07:52:34;;;;;;;1.00;1.00;;;-7.10;99.90;;;;;;5123502;27;20046;-72
2024/01/10 07:55:00;;;;;;;0.90;0.90;;;-7.10;99.90;;;;;;5113267;27;20471;-74
2024/01/10 07:57:26;;;;;;;1.02;1.02;;;-7.10;99.90;;;;;;5123738;27;20046;-73
2024/01/10 07:59:53;;;;;;;0.93;0.93;;;-7.10;99.90;;;;;;5097320;28;20040;-72
2024/01/10 08:02:19;;;;;;;1.45;1.35;;;-7.10;99.90;;;;;;5111004;27;20126;-73
2024/01/10 08:04:44;;;;;;;;;;;-7.10;99.90;;;;;;5110118;28;20221;-70
2024/01/10 08:07:10;;;;;;;0.82;0.82;;;-7.10;99.90;;;;;;5111512;28;20390;-76
2024/01/10 08:09:36;;;;;;;;;;;-7.00;99.90;;;;;;5111745;27;20083;-76
2024/01/10 08:12:06;;;;;;;0.90;0.90;;;-7.00;99.90;;;;;;5116500;27;20008;-77
2024/01/10 08:14:32;;;;;;;3.80;3.60;;;-6.20;99.90;;;;;;5112097;27;20036;-73
2024/01/10 08:16:58;;;;;;;;;;;-6.80;99.90;;;;;;5099134;28;20111;-73
2024/01/10 08:19:27;;;;;;;0.90;0.90;;;-6.80;99.90;;;;;;5119485;27;20062;-73
2024/01/10 08:21:54;;;;;;;0.90;0.90;;;-6.80;99.90;;;;;;5122236;27;20042;-72
2024/01/10 08:24:20;;;;;;;0.90;0.90;;;-6.60;99.90;;;;;;5096765;28;20043;-73
2024/01/10 08:26:51;;;;;;;0.90;0.90;;;-4.80;99.90;;;;;;5111130;27;20433;-74
2024/01/10 08:29:18;;;;;;;1.00;1.00;;;-6.50;99.90;;;;;;5123638;27;20035;-75
2024/01/10 08:31:44;;;;;;;1.00;1.00;;;-6.50;99.90;;;;;;5109745;27;20136;-75
2024/01/10 08:34:10;;;;;;;0.80;0.80;;;-6.50;99.90;;;;;;5116126;27;20139;-77
2024/01/10 08:36:37;;;;;;;;;;;-6.50;99.90;;;;;;5109359;28;20206;-73
2024/01/10 08:39:03;;;;;;;1.00;1.00;;;-6.40;99.90;;;;;;5109400;28;20724;-74
2024/01/10 08:41:30;;;;;;;0.90;0.90;;;-6.40;99.90;;;;;;5092898;28;20055;-72
2024/01/10 08:43:56;;;;;;;0.90;0.90;;;-6.30;99.90;;;;;;5109207;27;20075;-77
2024/01/10 08:46:24;;;;;;;0.80;0.80;;;-6.20;99.90;;;;;;5115887;27;20047;-76
2024/01/10 08:48:50;;;;;;;0.90;0.90;;;-6.20;99.90;;;;;;5109014;28;20051;-72
2024/01/10 08:51:16;;;;;;;0.90;0.90;;;-6.20;99.90;;;;;;5111895;27;20043;-76
2024/01/10 08:53:45;;;;;;;0.82;0.82;;;-6.20;99.90;;;;;;5113784;27;20468;-72
2024/01/10 08:56:11;;;;;;;;;;;-6.20;99.90;;;;;;5111261;27;20078;-74
2024/01/10 08:58:38;;;;;;;0.98;0.98;;;-6.20;99.90;;;;;;5115660;27;19919;-73
2024/01/10 09:01:08;;;;;;;0.80;0.80;;;-6.10;99.90;;;;;;5108788;28;20118;-78
2024/01/10 09:03:34;;;;;;;4.32;2.83;;;-5.70;99.90;;;;;;5100757;28;20047;-73
2024/01/10 09:06:01;;;;;;;0.90;0.90;;;-6.00;99.90;;;;;;5091393;28;20492;-76
2024/01/10 09:08:27;;;;;;;;;;;-5.90;99.90;;;;;;5094285;28;20048;-75
2024/01/10 09:10:53;;;;;;;7.30;4.05;;;-5.80;99.90;;;;;;5115003;27;19923;-75
2024/01/10 09:13:20;;;;;;;;;;;-5.80;99.90;;;;;;5075642;27;20062;-77
2024/01/10 09:15:46;;;;;;;1.80;1.70;;;-5.90;99.90;;;;;;5126271;27;19920;-72
2024/01/10 09:18:12;;;;;;;;;;;-5.60;99.90;;;;;;5109298;28;20057;-74
2024/01/10 09:20:38;;;;;;;0.90;0.90;;;-5.60;99.90;;;;;;5109733;28;19973;-77
2024/01/10 09:23:04;;;;;;;1.00;1.00;;;-5.50;99.90;;;;;;5092631;28;20423;-73
2024/01/10 09:25:30;;;;;;;;;;;-5.50;99.90;;;;;;5121804;28;20123;-72
2024/01/10 09:27:56;;;;;;;1.00;1.00;;;-5.40;99.90;;;;;;5101079;28;19922;-73
2024/01/10 09:30:22;;;;;;;;;;;-5.40;99.90;;;;;;5109381;28;20126;-72
2024/01/10 09:32:48;;;;;;;1.00;1.00;;;-5.30;99.90;;;;;;5076525;28;20007;-74
2024/01/10 09:35:14;;;;;;;;;;;-5.20;99.90;;;;;;5115593;28;20126;-72
2024/01/10 09:37:39;;;;;;;0.90;0.90;;;-5.10;99.90;;;;;;5108372;28;20290;-72
2024/01/10 09:40:08;;;;;;;;;;;-5.10;99.90;;;;;;5103665;28;20627;-75
2024/01/10 09:42:36;;;;;;;0.90;0.90;;;-5.10;99.90;;;;;;5112837;28;19923;-77
2024/01/10 09:45:05;;;;;;;0.88;0.88;;;-5.00;99.90;;;;;;5110120;28;20071;-73
2024/01/10 09:47:32;;;;;;;1.10;1.10;;;-5.00;99.90;;;;;;5097849;28;20556;-77
2024/01/10 09:49:59;;;;;;;0.85;0.85;;;-5.00;99.90;;;;;;5092238;28;20750;-73
2024/01/10 09:52:27;;;;;;;0.95;0.95;;;-5.00;99.90;;;;;;5082555;28;20369;-76
2024/01/10 09:54:57;;;;;;;1.00;1.00;;;-4.60;99.90;;;;;;5107820;28;20036;-72
2024/01/10 09:57:25;;;;;;;1.42;1.33;;;-4.90;99.90;;;;;;5103900;28;20050;-74
2024/01/10 09:59:51;;;;;;;0.98;0.98;;;-4.90;99.90;;;;;;5113013;28;20040;-73
2024/01/10 10:02:19;;;;;;;0.70;0.70;;;-4.80;99.90;;;;;;5094317;28;20144;-76
2024/01/10 10:05:04;;;;;;;0.80;0.80;;;-4.80;99.90;;;;;;5112977;28;20082;-75
2024/01/10 10:07:30;;;;;;;0.80;0.80;;;-4.70;99.90;;;;;;5115110;27;20047;-71
2024/01/10 10:09:58;;;;;;;;;;;-4.70;99.90;;;;;;5118237;27;20042;-73
2024/01/10 10:12:42;;;;;;;0.80;0.80;;;-4.60;99.90;;;;;;5096607;27;19920;-77
2024/01/10 10:15:16;;;;;;;0.80;0.80;;;-4.40;99.90;;;;;;5117012;27;20046;-75
2024/01/10 10:17:47;;;;;;;0.70;0.70;;;-4.50;99.90;;;;;;5114568;27;20058;-73
2024/01/10 10:20:35;;;;;;;0.90;0.90;;;-4.10;99.90;;;;;;5099874;28;20046;-72
2024/01/10 10:23:12;;;;;;;0.80;0.80;;;-4.30;99.90;;;;;;5105774;28;20047;-77
2024/01/10 10:25:47;;;;;;;0.80;0.80;;;-4.10;99.90;;;;;;5096042;27;20085;-73
2024/01/10 10:28:13;;;;;;;0.80;0.80;;;;;;;;;;5117664;27;20102;-76
2024/01/10 10:30:39;;;;;;;0.90;0.90;;;-4.20;99.90;;;;;;5112316;27;20044;-75
2024/01/10 10:33:05;;;;;;;;;;;-4.20;99.90;;;;;;5119362;27;20050;-74
2024/01/10 10:35:32;;;;;;;1.00;1.00;;;-4.10;99.90;;;;;;5111605;28;20098;-74
2024/01/10 10:37:58;;;;;;;0.90;0.90;;;-4.10;99.90;;;;;;5113290;27;20418;-74
2024/01/10 10:40:24;;;;;;;;;;;-4.10;99.90;;;;;;5118252;27;20137;-71
2024/01/10 10:42:56;;;;;;;1.00;1.00;;;-4.00;99.90;;;;;;5094504;27;19924;-75
2024/01/10 10:45:26;;;;;;;0.88;0.88;;;-4.00;99.90;;;;;;5127172;27;20069;-77
2024/01/10 10:47:59;;;;;;;0.70;0.70;;;-3.90;99.90;;;;;;5121350;27;20388;-75
2024/01/10 10:50:34;;;;;;;0.80;0.80;;;-3.90;99.90;;;;;;5102005;28;20389;-76
2024/01/10 10:53:03;;;;;;;0.90;0.90;;;-3.80;99.90;;;;;;5094320;27;20043;-77
2024/01/10 10:55:35;;;;;;;1.10;1.10;;;-4.00;99.90;;;;;;5113385;27;20046;-77
2024/01/10 10:58:04;;;;;;;0.80;0.80;;;-3.70;99.90;;;;;;5110627;28;20050;-73
2024/01/10 11:00:30;;;;;;;0.82;0.82;;;-3.60;99.90;;;;;;5120735;27;20555;-70
2024/01/10 11:02:59;;;;;;;0.93;0.93;;;-3.60;99.90;;;;;;5110817;28;20101;-72
2024/01/10 11:05:27;;;;;;;0.80;0.80;;;-3.50;99.90;;;;;;5112923;27;20064;-75
2024/01/10 11:07:53;;;;;;;0.90;0.90;;;-3.50;99.90;;;;;;5116233;27;20036;-77
2024/01/10 11:10:24;;;;;;;0.80;0.80;;;-3.50;99.90;;;;;;5093613;28;20044;-75
2024/01/10 11:13:06;;;;;;;0.70;0.70;;;-2.50;99.90;;;;;;5113124;27;20035;-76
2024/01/10 11:15:50;;;;;;;0.80;0.80;;;-3.40;99.90;;;;;;5113129;27;20043;-76
2024/01/10 11:18:54;;;;;;;0.80;0.80;;;-3.30;99.90;;;;;;5115047;27;20044;-75
2024/01/10 11:21:53;;;;;;;0.70;0.70;;;-3.30;99.90;;;;;;5107064;28;20047;-74
2024/01/10 11:24:19;;;;;;;0.90;0.90;;;-3.30;99.90;;;;;;5088941;28;20510;-72
2024/01/10 11:26:46;;;;;;;0.73;0.73;;;-3.30;99.90;;;;;;5077990;27;20047;-74
2024/01/10 11:29:12;;;;;;;;;;;-3.20;99.90;;;;;;5109372;28;20035;-75
2024/01/10 11:31:39;;;;;;;0.80;0.80;;;-3.30;99.90;;;;;;5111069;28;19926;-73
2024/01/10 11:34:05;;;;;;;0.80;0.80;;;-3.10;99.90;;;;;;5118926;27;20042;-74
2024/01/10 11:36:31;;;;;;;;;;;-3.10;99.90;;;;;;5111243;28;20048;-73
2024/01/10 11:39:05;;;;;;;0.80;0.80;;;-3.20;99.90;;;;;;5122432;27;20287;-76
2024/01/10 11:41:40;;;;;;;0.80;0.80;;;-3.00;99.90;;;;;;5126143;27;20055;-74
2024/01/10 11:44:18;;;;;;;0.80;0.80;;;-2.90;99.90;;;;;;5112628;27;20079;-73
2024/01/10 11:46:49;;;;;;;0.90;0.90;;;-2.90;99.90;;;;;;5114951;27;20342;-75
2024/01/10 11:49:17;;;;;;;0.80;0.80;;;-2.80;99.90;;;;;;5078857;27;20031;-76
2024/01/10 11:51:44;;;;;;;0.80;0.80;;;-2.80;99.90;;;;;;5115920;27;20449;-75
2024/01/10 11:54:10;;;;;;;0.90;0.90;;;-2.70;99.90;;;;;;5110125;28;20127;-73
2024/01/10 11:56:39;;;;;;;;;;;-2.30;99.90;;;;;;5110517;28;20061;-76
2024/01/10 11:59:15;;;;;;;0.90;0.90;;;;;;;;;;5110218;28;20372;-74
2024/01/10 12:01:42;;;;;;;0.80;0.80;;;;;;;;;;5100193;28;20074;-75
2024/01/10 12:04:11;;;;;;;0.90;0.90;;;-2.50;99.90;;;;;;5109593;28;20040;-72
2024/01/10 12:06:37;;;;;;;0.80;0.80;;;-2.40;99.90;;;;;;5101148;28;20051;-77
2024/01/10 12:09:13;;;;;;;;;;;-2.30;99.90;;;;;;5093438;28;20448;-71
2024/01/10 12:11:41;;;;;;;0.90;0.90;;;-2.40;99.90;;;;;;5092764;28;19915;-76
2024/01/10 12:14:08;;;;;;;0.90;0.90;;;-2.30;99.90;;;;;;5109751;28;20058;-75
2024/01/10 12:16:34;;;;;;;0.80;0.80;;;-2.30;99.90;;;;;;5093700;27;20054;-74
2024/01/10 12:19:00;;;;;;;;;;;-2.20;99.90;;;;;;5122564;27;20039;-76
2024/01/10 12:21:26;;;;;;;0.80;0.80;;;-2.20;99.90;;;;;;5112827;27;19922;-74
2024/01/10 12:23:52;;;;;;;0.88;0.88;;;-2.20;99.90;;;;;;5103868;27;20397;-76
2024/01/10 12:26:18;;;;;;;;;;;-2.10;99.90;;;;;;5099341;28;20549;-74
2024/01/10 12:28:58;;;;;;;0.90;0.90;;;-1.70;99.90;;;;;;5121555;27;20002;-79
2024/01/10 12:31:28;;;;;;;0.80;0.80;;;-2.10;99.90;;;;;;5119969;27;20035;-73
2024/01/10 12:33:55;;;;;;;0.90;0.90;;;-2.00;99.90;;;;;;5094830;27;20058;-71
2024/01/10 12:36:21;;;;;;;0.90;0.90;;;-2.00;99.90;;;;;;5124578;27;20095;-77
2024/01/10 12:38:47;;;;;;;0.95;0.95;;;-1.80;99.90;;;;;;5094656;27;20043;-71
2024/01/10 12:41:15;;;;;;;0.90;0.90;;;-1.90;99.90;;;;;;5118180;27;20644;-73
2024/01/10 12:43:41;;;;;;;0.98;0.98;;;-1.90;99.90;;;;;;5110677;28;20099;-74
2024/01/10 12:46:10;;;;;;;0.70;0.70;;;-1.80;99.90;;;;;;5114546;28;20098;-73
2024/01/10 12:48:37;;;;;;;0.82;0.82;;;-1.70;99.90;;;;;;5113674;28;20051;-74
2024/01/10 12:51:06;;;;;;;0.90;0.90;;;-1.70;99.90;;;;;;5124384;27;20050;-73
2024/01/10 12:53:37;;;;;;;0.90;0.90;;;-1.70;99.90;;;;;;5116561;27;20047;-72
2024/01/10 12:56:04;;;;;;;1.00;1.00;;;-1.60;99.90;;;;;;5109401;28;20044;-70
2024/01/10 12:58:31;;;;;;;0.80;0.80;;;-1.60;99.90;;;;;;5099770;28;20392;-71
2024/01/10 13:00:56;;;;;;;0.80;0.80;;;-1.60;99.90;;;;;;5109150;28;20051;-76
2024/01/10 13:03:23;;;;;;;0.88;0.88;;;-1.50;99.90;;;;;;5110595;28;20492;-75
2024/01/10 13:05:49;;;;;;;0.80;0.80;;;-1.50;99.90;;;;;;5123876;27;20112;-73